KESC/ESC METAR and TAF weather

Enter ICAO airport designator
Station Type Date Time Source
KESC METAR 2019/02/21 12:16 UTC NOAA

KESC 211216Z AUTO 26005KT 8SM -SN SCT027 OVC037 M04/M06 A2983 RMK AO2 P0000 FZRANO


Station Type Date Time Source
KESC Decoded METAR 2019/02/21 12:16 UTC NOAA

Escanaba, MI, United States (KESC) 45-45N 087-02W 187M
Feb 21, 2019 - 07:16 AM EST / 2019.02.21 1216 UTC
Wind: from the W (260 degrees) at 6 MPH (5 KT):0
Visibility: 8 mile(s):0
Sky conditions: overcast
Weather: light snow
Precipitation last hour: A trace
Temperature: 24 F (-4 C)
Windchill: 17 F (-8 C):1
Dew Point: 21 F (-6 C)
Relative Humidity: 85%
Pressure (altimeter): 29.83 in. Hg (1010 hPa)
ob: KESC 211216Z AUTO 26005KT 8SM -SN SCT027 OVC037 M04/M06 A2983 RMK AO2 P0000 FZRANO
cycle: 12

Station Type Date Time Source
KESC TAF UTC NOAA

Error!


Example: see airport list